Time;durP1;ratioP1;P1;durP2;ratioP2;P2;SDS_P1;SDS_P2;PMS_P1;PMS_P2;Temp;Humidity;BMP_temperature;BMP_pressure;BME280_temperature;BME280_humidity;BME280_pressure;Samples;Min_cycle;Max_cycle;Signal;HPM_P1;HPM_P2
2023/04/05 00:01:29;;;;;;;29.80;21.63;;;3.90;80.30;;;;;;5002198;28;20034;-77
2023/04/05 00:03:57;;;;;;;30.40;20.67;;;3.90;80.40;;;;;;5004603;28;20144;-76
2023/04/05 00:06:30;;;;;;;26.80;19.70;;;3.80;80.30;;;;;;5004832;28;20041;-77
2023/04/05 00:09:00;;;;;;;27.88;21.17;;;3.80;80.30;;;;;;5001281;28;20520;-76
2023/04/05 00:11:31;;;;;;;30.17;21.65;;;3.80;80.30;;;;;;5003954;28;20076;-77
2023/04/05 00:13:59;;;;;;;31.27;22.90;;;3.80;80.30;;;;;;5001698;28;20025;-76
2023/04/05 00:16:26;;;;;;;33.13;22.60;;;3.70;80.40;;;;;;5004138;28;20060;-76
2023/04/05 00:18:53;;;;;;;28.75;20.25;;;3.70;80.60;;;;;;5003722;28;20101;-76
2023/04/05 00:21:25;;;;;;;28.70;20.98;;;3.70;80.40;;;;;;5003019;28;20034;-76
2023/04/05 00:23:58;;;;;;;29.38;21.38;;;3.60;80.40;;;;;;5003517;28;20446;-76
2023/04/05 00:26:25;;;;;;;32.20;21.70;;;3.60;80.40;;;;;;4988399;28;20467;-76
2023/04/05 00:28:51;;;;;;;29.30;22.45;;;3.60;80.50;;;;;;5004699;28;20025;-76
2023/04/05 00:31:17;;;;;;;31.52;21.90;;;3.50;80.50;;;;;;5004292;28;20141;-77
2023/04/05 00:33:43;;;;;;;30.10;21.38;;;3.50;80.50;;;;;;5003004;28;20034;-76
2023/04/05 00:36:10;;;;;;;30.58;22.15;;;3.40;80.70;;;;;;5001833;28;20512;-76
2023/04/05 00:38:36;;;;;;;31.25;21.65;;;3.40;80.80;;;;;;5002768;28;20371;-77
2023/04/05 00:41:02;;;;;;;28.98;20.17;;;3.40;80.70;;;;;;5005426;28;20034;-76
2023/04/05 00:43:27;;;;;;;28.67;20.88;;;3.30;80.80;;;;;;5001409;28;20481;-76
2023/04/05 00:45:53;;;;;;;32.00;22.60;;;3.30;80.90;;;;;;5003802;28;20072;-76
2023/04/05 00:48:19;;;;;;;32.65;22.85;;;3.20;81.00;;;;;;5001470;28;20854;-77
2023/04/05 00:50:48;;;;;;;30.92;21.67;;;3.30;81.20;;;;;;5001429;28;20117;-78
2023/04/05 00:53:17;;;;;;;30.33;23.70;;;3.30;81.20;;;;;;5004812;28;20133;-76
2023/04/05 00:55:43;;;;;;;28.40;22.38;;;3.20;81.30;;;;;;5003742;28;20041;-76
2023/04/05 00:58:09;;;;;;;30.00;22.30;;;3.20;81.20;;;;;;4986810;28;20100;-76
2023/04/05 01:00:38;;;;;;;31.25;22.52;;;3.20;81.20;;;;;;5000165;28;20502;-76
2023/04/05 01:03:06;;;;;;;35.03;22.95;;;3.10;81.40;;;;;;5003127;28;20040;-78
2023/04/05 01:05:48;;;;;;;32.05;23.08;;;3.10;81.40;;;;;;5003818;28;20034;-77
2023/04/05 01:08:36;;;;;;;31.02;22.42;;;3.10;81.40;;;;;;5007249;28;20034;-77
2023/04/05 01:11:04;;;;;;;33.17;24.02;;;3.10;81.40;;;;;;5006163;28;20026;-77
2023/04/05 01:13:30;;;;;;;33.58;25.00;;;3.10;81.50;;;;;;5005057;28;20041;-76
2023/04/05 01:15:56;;;;;;;32.35;24.27;;;3.10;81.60;;;;;;5006084;28;20445;-76
2023/04/05 01:18:23;;;;;;;34.00;24.70;;;3.00;81.60;;;;;;4994548;28;20026;-78
2023/04/05 01:20:57;;;;;;;34.97;26.05;;;3.00;81.70;;;;;;5011804;28;20026;-78
2023/04/05 01:23:58;;;;;;;34.75;25.05;;;3.10;81.90;;;;;;5009061;28;20025;-75
2023/04/05 01:27:02;;;;;;;34.10;23.95;;;3.00;81.90;;;;;;4997063;28;20038;-79
2023/04/05 01:29:47;;;;;;;34.42;24.60;;;3.00;81.90;;;;;;5020754;28;20121;-78
2023/04/05 01:32:43;;;;;;;34.28;24.38;;;2.90;81.80;;;;;;5008918;28;20108;-75
2023/04/05 01:35:20;;;;;;;39.15;26.92;;;2.90;81.80;;;;;;5023081;28;20033;-78
2023/04/05 01:37:54;;;;;;;36.85;26.63;;;2.90;82.00;;;;;;5006030;28;20030;-78
2023/04/05 01:40:21;;;;;;;36.50;27.27;;;2.90;82.10;;;;;;5007517;28;20105;-78
2023/04/05 01:42:47;;;;;;;37.22;26.35;;;2.90;82.20;;;;;;5003491;28;20042;-78
2023/04/05 01:45:12;;;;;;;36.97;25.15;;;2.90;82.30;;;;;;5000674;28;20022;-78
2023/04/05 01:47:38;;;;;;;36.78;25.55;;;2.90;82.40;;;;;;5002715;28;20050;-77
2023/04/05 01:50:04;;;;;;;34.85;24.88;;;2.80;82.50;;;;;;5009087;28;20029;-78
2023/04/05 01:52:30;;;;;;;36.58;26.30;;;2.80;82.60;;;;;;5004971;28;20041;-77
2023/04/05 01:54:56;;;;;;;33.45;24.88;;;2.80;82.70;;;;;;5006514;28;20033;-78
2023/04/05 01:57:22;;;;;;;33.30;25.35;;;2.80;82.80;;;;;;5005614;28;20033;-78
2023/04/05 01:59:47;;;;;;;35.15;26.50;;;2.70;82.90;;;;;;5006995;28;20030;-77
2023/04/05 02:02:13;;;;;;;34.95;25.23;;;2.70;82.90;;;;;;5018893;28;20100;-77
2023/04/05 02:04:39;;;;;;;39.25;27.33;;;2.70;83.00;;;;;;5003168;28;20133;-79
2023/04/05 02:07:04;;;;;;;35.38;25.55;;;2.70;83.00;;;;;;5010357;28;20026;-77
2023/04/05 02:09:30;;;;;;;33.78;25.00;;;2.60;83.10;;;;;;5004958;28;20029;-78
2023/04/05 02:11:56;;;;;;;37.05;25.40;;;2.60;83.10;;;;;;5011624;28;20045;-77
2023/04/05 02:14:23;;;;;;;35.70;26.17;;;2.60;83.00;;;;;;5008744;28;20084;-77
2023/04/05 02:16:49;;;;;;;36.03;26.17;;;2.50;82.80;;;;;;5004734;28;20029;-78
2023/04/05 02:19:21;;;;;;;35.78;26.13;;;2.40;82.90;;;;;;4984936;28;20446;-76
2023/04/05 02:21:52;;;;;;;35.75;25.33;;;2.40;82.90;;;;;;5004944;28;20037;-76
2023/04/05 02:24:18;;;;;;;37.65;27.27;;;2.30;83.00;;;;;;5007680;28;20478;-76
2023/04/05 02:26:44;;;;;;;37.28;27.00;;;2.30;83.00;;;;;;5000156;28;20134;-76
2023/04/05 02:29:09;;;;;;;37.88;27.70;;;2.30;83.10;;;;;;5005327;28;20096;-76
2023/04/05 02:31:35;;;;;;;35.97;27.45;;;2.20;83.40;;;;;;5002889;28;20472;-76
2023/04/05 02:34:01;;;;;;;37.15;26.38;;;2.20;83.50;;;;;;4993528;28;20044;-76
2023/04/05 02:36:29;;;;;;;35.22;27.17;;;2.20;83.60;;;;;;5002766;28;20648;-76
2023/04/05 02:38:55;;;;;;;35.88;25.73;;;2.20;83.70;;;;;;5005016;28;20057;-76
2023/04/05 02:41:22;;;;;;;36.08;26.25;;;2.20;83.80;;;;;;5004231;28;20058;-76
2023/04/05 02:43:49;;;;;;;33.80;25.80;;;2.20;83.80;;;;;;5005900;28;20026;-76
2023/04/05 02:46:15;;;;;;;35.97;27.45;;;2.20;83.80;;;;;;5005239;28;20068;-76
2023/04/05 02:48:40;;;;;;;33.92;26.52;;;2.20;83.70;;;;;;5017327;28;20474;-76
2023/04/05 02:51:06;;;;;;;34.65;24.90;;;2.20;83.70;;;;;;4986560;28;20637;-76
2023/04/05 02:53:32;;;;;;;35.72;26.08;;;2.10;83.70;;;;;;5005863;28;20478;-78
2023/04/05 02:55:58;;;;;;;40.80;26.60;;;2.10;83.60;;;;;;5003361;28;20108;-77
2023/04/05 02:58:24;;;;;;;37.95;26.42;;;2.10;83.60;;;;;;5005106;28;20026;-77
2023/04/05 03:00:51;;;;;;;36.40;26.85;;;2.10;83.60;;;;;;5003942;28;20049;-76
2023/04/05 03:03:18;;;;;;;36.30;26.77;;;2.10;83.70;;;;;;5010959;28;20080;-77
2023/04/05 03:05:45;;;;;;;37.78;28.33;;;2.10;83.70;;;;;;5002178;28;20030;-76
2023/04/05 03:08:17;;;;;;;34.47;25.98;;;2.00;83.30;;;;;;5004938;28;20127;-78
2023/04/05 03:10:45;;;;;;;38.35;27.30;;;2.00;83.30;;;;;;5004705;28;20029;-76
2023/04/05 03:13:10;;;;;;;38.60;27.02;;;2.00;83.40;;;;;;5005477;28;20127;-77
2023/04/05 03:15:36;;;;;;;37.28;27.58;;;1.90;83.40;;;;;;5003369;28;20500;-76
2023/04/05 03:18:02;;;;;;;36.30;26.63;;;1.90;83.50;;;;;;5002587;28;20022;-79
2023/04/05 03:20:27;;;;;;;34.50;27.65;;;1.90;83.60;;;;;;5004105;28;20219;-76
2023/04/05 03:22:53;;;;;;;36.45;27.05;;;2.10;83.50;;;;;;4999341;28;20100;-77
2023/04/05 03:25:19;;;;;;;34.00;26.85;;;2.10;83.10;;;;;;5001142;28;20041;-76
2023/04/05 03:27:44;;;;;;;36.60;28.13;;;2.10;83.00;;;;;;5004854;28;20453;-76
2023/04/05 03:30:10;;;;;;;42.33;27.90;;;2.10;83.00;;;;;;5007809;28;20086;-78
2023/04/05 03:32:36;;;;;;;40.88;29.98;;;2.10;82.90;;;;;;5009964;28;20026;-76
2023/04/05 03:35:02;;;;;;;39.58;30.58;;;2.10;83.00;;;;;;5005981;28;20112;-77
2023/04/05 03:37:27;;;;;;;38.67;28.60;;;2.10;83.00;;;;;;4976369;28;20125;-77
2023/04/05 03:39:53;;;;;;;40.22;27.85;;;2.10;83.00;;;;;;5005238;28;20038;-77
2023/04/05 03:42:19;;;;;;;38.08;27.83;;;2.10;83.20;;;;;;5003961;28;20034;-76
2023/04/05 03:44:46;;;;;;;35.15;26.88;;;2.10;83.20;;;;;;5004185;28;20062;-76
2023/04/05 03:47:12;;;;;;;39.35;27.75;;;2.10;83.10;;;;;;5002663;28;20054;-78
2023/04/05 03:49:37;;;;;;;39.25;27.73;;;2.10;83.10;;;;;;5002991;28;20056;-76
2023/04/05 03:52:03;;;;;;;35.97;26.85;;;2.10;83.20;;;;;;4999044;28;20053;-77
2023/04/05 03:54:29;;;;;;;38.28;28.10;;;2.00;83.20;;;;;;4981282;28;20033;-77
2023/04/05 03:56:55;;;;;;;40.75;29.50;;;2.00;83.20;;;;;;5003648;28;20832;-77
2023/04/05 03:59:21;;;;;;;242.75;120.22;;;2.00;83.10;;;;;;5005243;28;20553;-77
2023/04/05 04:01:46;;;;;;;221.48;111.72;;;2.00;83.10;;;;;;5006352;28;20050;-77
2023/04/05 04:04:12;;;;;;;85.57;49.67;;;2.00;83.00;;;;;;4999159;28;20056;-76
2023/04/05 04:06:38;;;;;;;65.07;41.10;;;2.00;83.20;;;;;;4982756;28;20114;-77
2023/04/05 04:09:04;;;;;;;43.17;31.27;;;2.00;83.10;;;;;;5002677;28;20037;-77
2023/04/05 04:11:30;;;;;;;42.97;30.15;;;1.90;83.00;;;;;;5004732;28;20112;-76
2023/04/05 04:13:56;;;;;;;40.17;29.35;;;1.90;83.10;;;;;;5003284;28;20934;-77
2023/04/05 04:16:21;;;;;;;43.05;31.92;;;1.90;83.10;;;;;;5007121;28;20723;-77
2023/04/05 04:18:47;;;;;;;41.97;29.77;;;1.90;83.20;;;;;;5003291;28;20048;-79
2023/04/05 04:21:15;;;;;;;42.50;29.50;;;1.90;83.30;;;;;;5004650;28;20038;-77
2023/04/05 04:23:44;;;;;;;73.18;41.88;;;1.80;83.20;;;;;;4993873;28;20101;-77
2023/04/05 04:26:10;;;;;;;96.15;48.40;;;1.80;83.30;;;;;;4998337;28;20053;-76
2023/04/05 04:28:37;;;;;;;119.35;61.33;;;1.80;83.10;;;;;;4999431;28;20026;-76
2023/04/05 04:31:03;;;;;;;85.30;44.58;;;1.80;83.20;;;;;;5003710;28;20041;-78
2023/04/05 04:33:30;;;;;;;55.28;33.95;;;1.70;83.20;;;;;;4999256;28;20084;-77
2023/04/05 04:35:55;;;;;;;57.22;34.63;;;1.70;83.00;;;;;;4992797;28;20022;-77
2023/04/05 04:38:24;;;;;;;56.15;34.63;;;1.60;83.10;;;;;;4987225;28;20470;-78
2023/04/05 04:40:52;;;;;;;49.15;33.83;;;1.70;83.10;;;;;;5003958;28;20053;-77
2023/04/05 04:43:18;;;;;;;54.42;32.95;;;1.60;83.00;;;;;;5009144;28;20026;-77
2023/04/05 04:45:47;;;;;;;60.28;37.05;;;1.60;83.10;;;;;;5005859;28;20037;-76
2023/04/05 04:48:15;;;;;;;52.13;35.58;;;1.60;83.10;;;;;;4994082;28;20049;-77
2023/04/05 04:50:42;;;;;;;50.22;31.75;;;1.60;83.00;;;;;;5004265;28;20025;-78
2023/04/05 04:53:08;;;;;;;49.85;32.33;;;1.60;82.80;;;;;;5009239;28;20096;-79
2023/04/05 04:55:35;;;;;;;55.17;34.95;;;1.60;82.70;;;;;;5008762;28;20113;-79
2023/04/05 04:58:08;;;;;;;55.53;35.72;;;1.50;82.90;;;;;;5007711;28;20109;-77
2023/04/05 05:00:35;;;;;;;52.35;35.80;;;1.50;83.00;;;;;;5004842;28;20037;-77
2023/04/05 05:03:02;;;;;;;49.13;33.30;;;1.50;83.10;;;;;;5006901;28;20038;-77
2023/04/05 05:05:28;;;;;;;50.95;34.90;;;1.50;83.20;;;;;;5007618;28;20041;-77
2023/04/05 05:07:54;;;;;;;53.42;35.33;;;1.60;83.30;;;;;;5005862;28;20036;-79
2023/04/05 05:10:20;;;;;;;55.10;34.92;;;1.50;83.30;;;;;;5007607;28;20064;-77
2023/04/05 05:12:47;;;;;;;58.80;37.10;;;1.60;83.30;;;;;;5022200;28;20081;-75
2023/04/05 05:15:13;;;;;;;54.45;34.75;;;1.60;83.20;;;;;;4988805;28;20035;-78
2023/04/05 05:17:39;;;;;;;51.00;34.40;;;1.60;83.00;;;;;;5006168;28;20106;-80
2023/04/05 05:20:09;;;;;;;47.83;32.55;;;1.50;82.70;;;;;;5004573;28;20068;-77
2023/04/05 05:22:39;;;;;;;47.17;31.73;;;1.50;82.60;;;;;;5003128;28;20089;-78
2023/04/05 05:25:05;;;;;;;46.50;30.77;;;1.50;82.60;;;;;;5005377;28;20038;-78
2023/04/05 05:27:32;;;;;;;46.85;32.60;;;1.50;82.60;;;;;;5006526;28;20052;-78
2023/04/05 05:29:58;;;;;;;43.03;31.02;;;1.40;82.90;;;;;;4988433;28;20390;-79
2023/04/05 05:32:24;;;;;;;45.15;32.67;;;1.30;83.30;;;;;;5004441;28;20037;-77
2023/04/05 05:34:50;;;;;;;45.90;32.85;;;1.30;83.50;;;;;;5000519;28;20303;-79
2023/04/05 05:37:16;;;;;;;48.80;35.65;;;1.40;83.60;;;;;;5006235;28;20536;-79
2023/04/05 05:39:43;;;;;;;56.83;38.35;;;1.50;83.70;;;;;;5022432;28;20014;-78
2023/04/05 05:42:09;;;;;;;58.38;37.67;;;1.60;83.80;;;;;;5006724;28;20438;-78
2023/04/05 05:44:35;;;;;;;55.42;36.00;;;1.70;83.50;;;;;;4990725;28;20073;-79
2023/04/05 05:47:02;;;;;;;76.68;47.80;;;1.80;83.50;;;;;;5002285;28;20050;-79
2023/04/05 05:49:27;;;;;;;98.40;57.55;;;1.80;83.50;;;;;;4992085;28;20726;-77
2023/04/05 05:51:53;;;;;;;91.97;54.28;;;1.90;83.40;;;;;;5005301;28;20041;-79
2023/04/05 05:54:19;;;;;;;136.25;75.30;;;2.00;83.20;;;;;;5004935;28;20030;-79
2023/04/05 05:56:45;;;;;;;196.18;101.68;;;2.10;83.20;;;;;;5005056;28;20474;-78
2023/04/05 05:59:10;;;;;;;226.65;115.90;;;2.20;82.90;;;;;;5006441;28;20076;-77
2023/04/05 06:01:37;;;;;;;149.88;66.70;;;2.30;82.70;;;;;;5003494;28;20064;-77
2023/04/05 06:04:03;;;;;;;148.35;70.57;;;2.40;82.50;;;;;;5002080;28;20018;-78
2023/04/05 06:06:29;;;;;;;176.50;82.32;;;2.40;82.60;;;;;;5016844;28;20421;-78
2023/04/05 06:08:55;;;;;;;186.82;88.20;;;2.60;82.50;;;;;;5015293;28;20088;-78
2023/04/05 06:11:22;;;;;;;167.50;85.63;;;2.70;82.20;;;;;;5005900;28;20041;-78
2023/04/05 06:13:51;;;;;;;141.10;75.70;;;2.70;82.00;;;;;;4989771;28;20113;-77
2023/04/05 06:16:17;;;;;;;106.63;59.60;;;2.80;81.70;;;;;;4996872;28;20049;-78
2023/04/05 06:18:43;;;;;;;74.70;48.42;;;2.90;81.50;;;;;;5005853;28;20032;-78
2023/04/05 06:21:08;;;;;;;73.82;47.75;;;3.00;81.40;;;;;;4994649;28;20636;-77
2023/04/05 06:23:35;;;;;;;80.70;49.50;;;3.10;81.40;;;;;;5005551;28;20022;-77
2023/04/05 06:26:01;;;;;;;119.88;70.85;;;3.10;81.40;;;;;;4995363;28;20760;-77
2023/04/05 06:28:28;;;;;;;167.23;96.90;;;3.20;81.40;;;;;;4991084;28;20028;-76
2023/04/05 06:30:57;;;;;;;115.13;58.65;;;3.30;81.40;;;;;;5005166;28;20033;-77
2023/04/05 06:33:22;;;;;;;116.43;56.17;;;3.40;81.50;;;;;;5000461;28;20117;-77
2023/04/05 06:35:48;;;;;;;97.80;51.63;;;3.50;81.40;;;;;;5005815;28;20693;-77
2023/04/05 06:38:14;;;;;;;94.30;50.25;;;3.60;81.40;;;;;;4994633;28;20029;-76
2023/04/05 06:40:40;;;;;;;66.05;42.55;;;3.60;81.30;;;;;;5005117;28;20057;-76
2023/04/05 06:43:06;;;;;;;51.22;38.22;;;3.80;81.50;;;;;;5012065;28;20526;-76
2023/04/05 06:45:32;;;;;;;51.67;39.53;;;3.80;81.50;;;;;;5020210;28;20037;-76
2023/04/05 06:47:57;;;;;;;56.10;39.35;;;4.00;81.30;;;;;;5006042;28;20453;-77
2023/04/05 06:50:23;;;;;;;53.45;38.90;;;4.00;81.10;;;;;;5007993;28;20034;-77
2023/04/05 06:52:49;;;;;;;54.25;40.17;;;4.10;81.10;;;;;;5006909;28;20026;-76
2023/04/05 06:55:15;;;;;;;44.28;36.58;;;4.20;81.60;;;;;;5006400;28;20034;-76
2023/04/05 06:57:40;;;;;;;48.50;37.00;;;4.30;81.70;;;;;;5006104;28;20477;-77
2023/04/05 07:00:11;;;;;;;56.22;40.83;;;4.40;81.70;;;;;;5013409;28;20025;-77
2023/04/05 07:02:37;;;;;;;54.95;45.63;;;4.60;81.60;;;;;;5008798;28;20254;-76
2023/04/05 07:05:04;;;;;;;56.42;44.33;;;4.70;81.70;;;;;;5010709;28;20228;-73
2023/04/05 07:07:32;;;;;;;52.08;43.33;;;4.90;81.50;;;;;;4997763;28;20509;-73
2023/04/05 07:09:58;;;;;;;54.88;41.20;;;5.00;81.10;;;;;;5007588;28;20033;-73
2023/04/05 07:12:23;;;;;;;48.28;40.40;;;5.20;80.90;;;;;;5006171;28;20397;-73
2023/04/05 07:14:49;;;;;;;50.95;40.90;;;5.40;80.30;;;;;;5001711;28;20469;-74
2023/04/05 07:17:15;;;;;;;48.70;39.03;;;5.60;79.90;;;;;;5005193;28;20184;-73
2023/04/05 07:19:41;;;;;;;50.35;37.20;;;5.60;79.60;;;;;;5021220;28;20389;-74
2023/04/05 07:22:07;;;;;;;50.20;35.58;;;5.80;78.80;;;;;;5005633;28;20030;-74
2023/04/05 07:24:32;;;;;;;44.42;34.28;;;5.90;77.10;;;;;;5013058;28;20044;-72
2023/04/05 07:26:58;;;;;;;48.47;33.72;;;6.20;76.10;;;;;;4993156;28;20035;-73
2023/04/05 07:29:25;;;;;;;42.60;32.67;;;6.20;74.90;;;;;;5004232;28;20134;-74
2023/04/05 07:31:50;;;;;;;42.95;32.30;;;6.40;73.90;;;;;;5000940;28;20490;-73
2023/04/05 07:34:16;;;;;;;43.78;32.58;;;6.50;73.60;;;;;;5001264;28;20036;-73
2023/04/05 07:36:42;;;;;;;46.65;32.08;;;6.70;73.10;;;;;;5007065;28;20642;-73
2023/04/05 07:39:08;;;;;;;39.88;32.50;;;6.90;72.50;;;;;;4991077;28;20058;-73
2023/04/05 07:41:37;;;;;;;41.75;29.75;;;7.10;72.10;;;;;;4998698;28;20108;-73
2023/04/05 07:44:02;;;;;;;36.80;27.15;;;7.30;71.60;;;;;;5004774;28;20029;-72
2023/04/05 07:46:29;;;;;;;39.00;26.67;;;7.40;70.40;;;;;;5004324;28;20152;-73
2023/04/05 07:48:54;;;;;;;35.38;27.02;;;7.60;69.90;;;;;;5005889;28;20054;-73
2023/04/05 07:51:21;;;;;;;29.05;23.88;;;7.90;69.30;;;;;;4990400;28;21207;-73
2023/04/05 07:53:47;;;;;;;31.67;23.65;;;8.00;67.80;;;;;;4989978;28;20642;-73
2023/04/05 07:56:14;;;;;;;32.10;23.70;;;8.20;67.00;;;;;;5002982;28;20034;-72
2023/04/05 07:58:40;;;;;;;32.88;22.58;;;8.40;66.90;;;;;;5000936;28;20033;-72
2023/04/05 08:01:08;;;;;;;34.92;21.33;;;8.70;66.80;;;;;;5010283;28;20038;-73
2023/04/05 08:03:34;;;;;;;30.00;21.52;;;8.80;65.20;;;;;;5003179;28;20030;-73
2023/04/05 08:06:18;;;;;;;29.98;21.55;;;8.90;62.60;;;;;;5001044;28;20093;-74
2023/04/05 08:08:45;;;;;;;27.45;20.63;;;9.00;62.10;;;;;;5026454;28;20518;-72
2023/04/05 08:11:11;;;;;;;31.52;21.35;;;9.10;60.60;;;;;;5001839;28;20038;-72
2023/04/05 08:13:40;;;;;;;29.17;21.50;;;9.30;60.90;;;;;;5004973;28;20045;-73
2023/04/05 08:16:07;;;;;;;30.40;21.17;;;9.60;60.00;;;;;;5013830;28;20124;-73
2023/04/05 08:18:32;;;;;;;31.75;21.58;;;9.80;57.80;;;;;;5016084;28;20018;-73
2023/04/05 08:20:58;;;;;;;28.75;19.92;;;9.80;58.10;;;;;;5005972;28;20045;-74
2023/04/05 08:23:24;;;;;;;24.42;15.93;;;10.00;57.60;;;;;;5001349;28;20110;-73
2023/04/05 08:25:50;;;;;;;17.95;11.13;;;10.10;54.60;;;;;;5005678;28;20096;-74
2023/04/05 08:28:16;;;;;;;13.50;10.15;;;10.20;50.10;;;;;;5007054;28;20449;-75
2023/04/05 08:30:41;;;;;;;21.20;12.70;;;10.30;49.00;;;;;;5006080;28;20029;-75
2023/04/05 08:33:07;;;;;;;18.52;12.07;;;10.40;49.70;;;;;;4996180;28;20099;-74
2023/04/05 08:35:36;;;;;;;18.17;11.10;;;10.50;49.80;;;;;;5014122;28;20037;-74
2023/04/05 08:38:02;;;;;;;18.33;12.23;;;10.70;48.40;;;;;;5011512;28;20046;-73
2023/04/05 08:40:46;;;;;;;16.88;11.27;;;10.80;47.70;;;;;;4997408;28;20116;-73
2023/04/05 08:43:21;;;;;;;15.93;11.07;;;11.10;45.70;;;;;;5002200;28;20091;-73
2023/04/05 08:45:51;;;;;;;15.27;10.68;;;11.10;45.10;;;;;;4997976;28;20042;-72
2023/04/05 08:48:18;;;;;;;17.67;11.70;;;11.20;44.70;;;;;;5010694;28;20085;-74
2023/04/05 08:50:54;;;;;;;20.38;14.23;;;11.40;45.50;;;;;;5007445;28;20118;-73
2023/04/05 08:53:20;;;;;;;22.02;15.05;;;11.40;48.50;;;;;;5009746;28;20030;-74
2023/04/05 08:55:52;;;;;;;25.92;14.60;;;11.60;47.40;;;;;;5003169;28;20031;-74
2023/04/05 08:58:21;;;;;;;22.13;16.20;;;11.70;48.30;;;;;;5004107;28;20025;-74
2023/04/05 09:00:48;;;;;;;23.10;15.48;;;11.60;48.10;;;;;;5000269;28;20022;-73
2023/04/05 09:03:16;;;;;;;20.88;14.18;;;11.40;47.60;;;;;;5011524;28;20470;-73
2023/04/05 09:05:47;;;;;;;18.83;13.68;;;11.50;47.90;;;;;;5005410;28;20034;-74
2023/04/05 09:08:13;;;;;;;19.90;12.65;;;11.70;48.30;;;;;;5009498;28;20026;-74
2023/04/05 09:10:40;;;;;;;16.27;11.10;;;11.60;45.70;;;;;;5000524;28;20030;-75
2023/04/05 09:13:07;;;;;;;20.65;12.02;;;11.50;44.90;;;;;;5007088;28;20037;-74
2023/04/05 09:15:35;;;;;;;15.27;9.95;;;11.50;45.40;;;;;;4993593;28;20018;-76
2023/04/05 09:18:01;;;;;;;18.15;10.50;;;11.40;43.50;;;;;;5007925;28;20057;-74
2023/04/05 09:20:26;;;;;;;20.70;11.02;;;11.40;42.60;;;;;;5007501;28;20022;-75
2023/04/05 09:22:55;;;;;;;16.92;10.57;;;11.60;42.70;;;;;;5021947;28;20473;-74
2023/04/05 09:25:41;;;;;;;14.32;9.50;;;11.80;40.90;;;;;;5009438;28;20030;-75
2023/04/05 09:28:08;;;;;;;16.88;10.18;;;12.10;41.90;;;;;;5007345;28;20474;-74
2023/04/05 09:30:36;;;;;;;15.70;10.40;;;12.30;41.70;;;;;;5005713;28;20041;-75
2023/04/05 09:33:02;;;;;;;16.08;10.45;;;12.20;43.20;;;;;;4999534;28;20026;-75
2023/04/05 09:35:30;;;;;;;17.00;10.85;;;12.50;43.00;;;;;;5006111;28;20038;-74
2023/04/05 09:38:01;;;;;;;13.93;9.40;;;12.30;41.20;;;;;;5003954;28;20539;-74
2023/04/05 09:40:42;;;;;;;15.02;10.57;;;12.10;41.20;;;;;;5008073;28;20033;-75
2023/04/05 09:43:09;;;;;;;14.40;10.38;;;11.90;40.80;;;;;;5000720;28;20117;-75
2023/04/05 09:45:43;;;;;;;16.65;9.88;;;11.90;42.00;;;;;;5005566;28;20596;-75
2023/04/05 09:48:09;;;;;;;16.23;11.43;;;12.00;39.90;;;;;;5007423;28;20667;-75
2023/04/05 09:50:35;;;;;;;16.85;11.23;;;11.80;40.40;;;;;;5005462;28;20489;-75
2023/04/05 09:53:19;;;;;;;17.52;10.93;;;12.00;40.70;;;;;;5007637;28;20014;-74
2023/04/05 09:55:45;;;;;;;15.83;11.27;;;12.20;39.30;;;;;;5006952;28;20674;-74
2023/04/05 09:58:12;;;;;;;17.40;12.55;;;12.40;40.10;;;;;;5004772;28;20100;-74
2023/04/05 10:00:38;;;;;;;18.38;12.32;;;12.50;40.40;;;;;;5005962;28;20037;-74
2023/04/05 10:03:04;;;;;;;13.15;11.20;;;12.60;41.10;;;;;;4996165;28;20020;-75
2023/04/05 10:05:31;;;;;;;17.15;11.48;;;12.40;37.60;;;;;;5006024;28;20033;-74
2023/04/05 10:07:58;;;;;;;15.70;12.20;;;12.40;38.90;;;;;;4987573;28;20648;-74
2023/04/05 10:10:24;;;;;;;17.15;11.80;;;12.60;40.10;;;;;;4991353;28;20612;-75
2023/04/05 10:12:52;;;;;;;17.45;11.75;;;12.80;38.70;;;;;;5010762;28;20116;-74
2023/04/05 10:15:18;;;;;;;16.05;11.45;;;12.40;39.40;;;;;;5000750;28;20030;-74
2023/04/05 10:17:50;;;;;;;18.50;12.90;;;12.50;39.90;;;;;;5010669;28;20029;-75
2023/04/05 10:20:23;;;;;;;15.45;11.00;;;12.50;40.60;;;;;;5017415;28;20033;-75
2023/04/05 10:22:57;;;;;;;17.75;12.23;;;12.60;39.50;;;;;;4989320;28;20030;-74
2023/04/05 10:25:50;;;;;;;18.20;12.02;;;12.50;38.00;;;;;;5016029;28;20073;-75
2023/04/05 10:28:33;;;;;;;17.90;11.50;;;12.70;38.30;;;;;;5005443;28;20038;-76
2023/04/05 10:31:16;;;;;;;17.75;12.40;;;12.50;40.30;;;;;;5004976;28;20041;-74
2023/04/05 10:33:46;;;;;;;16.85;12.73;;;12.80;40.50;;;;;;5004167;28;20029;-74
2023/04/05 10:36:38;;;;;;;21.23;12.45;;;13.00;39.50;;;;;;5006273;28;20038;-75
2023/04/05 10:39:26;;;;;;;17.10;12.25;;;13.30;39.30;;;;;;5010658;28;20525;-74
2023/04/05 10:41:53;;;;;;;15.68;12.52;;;13.60;38.30;;;;;;5007841;28;20038;-74
2023/04/05 10:44:19;;;;;;;17.83;12.50;;;13.60;37.40;;;;;;5004251;28;20054;-73
2023/04/05 10:46:45;;;;;;;17.67;11.77;;;13.70;37.50;;;;;;5005786;28;20057;-76
2023/04/05 10:49:25;;;;;;;17.70;12.52;;;13.80;37.90;;;;;;5005881;28;20413;-73
2023/04/05 10:51:51;;;;;;;19.63;12.73;;;13.80;36.80;;;;;;5003655;28;20038;-74
2023/04/05 10:54:19;;;;;;;18.83;12.82;;;13.80;37.30;;;;;;5003972;28;20046;-75
2023/04/05 10:56:45;;;;;;;16.88;13.10;;;13.80;36.70;;;;;;5005983;28;20034;-75
2023/04/05 10:59:21;;;;;;;16.52;12.50;;;13.60;36.40;;;;;;5049454;28;20444;-73
2023/04/05 11:01:47;;;;;;;15.65;12.57;;;13.30;38.70;;;;;;5036510;28;20052;-75
2023/04/05 11:04:15;;;;;;;20.60;13.15;;;13.30;38.40;;;;;;5017106;28;20026;-76
2023/04/05 11:06:41;;;;;;;16.15;12.35;;;12.70;39.10;;;;;;5012167;28;20042;-75
2023/04/05 11:09:13;;;;;;;17.65;12.98;;;12.50;38.80;;;;;;5015669;28;20092;-74
2023/04/05 11:11:41;;;;;;;17.05;12.30;;;12.80;38.70;;;;;;5002837;28;20049;-75
2023/04/05 11:14:20;;;;;;;15.15;11.90;;;13.20;37.80;;;;;;5010562;28;20029;-74
2023/04/05 11:16:48;;;;;;;15.88;10.82;;;13.60;36.90;;;;;;5007466;28;20124;-73
2023/04/05 11:19:17;;;;;;;15.95;12.02;;;14.00;36.20;;;;;;5009385;28;20042;-74
2023/04/05 11:21:45;;;;;;;16.65;12.07;;;14.10;36.60;;;;;;5008276;28;20091;-74
2023/04/05 11:24:14;;;;;;;14.65;10.60;;;14.30;35.00;;;;;;5011832;28;20038;-73
2023/04/05 11:26:43;;;;;;;16.75;11.82;;;14.30;35.10;;;;;;5005660;28;20129;-73
2023/04/05 11:29:11;;;;;;;17.83;11.95;;;14.50;35.50;;;;;;5010856;28;20046;-75
2023/04/05 11:32:05;;;;;;;16.15;11.68;;;14.40;35.40;;;;;;5005764;28;20096;-73
2023/04/05 11:34:35;;;;;;;17.20;11.50;;;14.50;35.10;;;;;;5010855;28;20030;-74
2023/04/05 11:37:01;;;;;;;18.23;12.45;;;14.50;34.60;;;;;;5008332;28;20800;-75
2023/04/05 11:39:27;;;;;;;19.80;12.75;;;14.70;34.70;;;;;;5009659;28;20050;-75
2023/04/05 11:41:55;;;;;;;16.73;12.65;;;14.80;35.90;;;;;;5007350;28;20121;-74
2023/04/05 11:44:23;;;;;;;16.20;12.25;;;15.00;34.20;;;;;;5011284;28;20671;-72
2023/04/05 11:46:49;;;;;;;17.73;12.70;;;15.10;34.70;;;;;;5026441;28;20053;-76
2023/04/05 11:49:15;;;;;;;16.52;12.73;;;15.10;35.70;;;;;;5011240;28;20272;-74
2023/04/05 11:51:42;;;;;;;16.15;11.88;;;15.10;35.70;;;;;;5017160;28;20497;-75
2023/04/05 11:54:10;;;;;;;17.35;12.98;;;15.10;35.70;;;;;;5013382;28;20029;-75
2023/04/05 11:56:36;;;;;;;16.30;12.80;;;14.90;36.50;;;;;;5021421;28;20037;-73
2023/04/05 11:59:02;;;;;;;20.13;13.20;;;15.10;35.30;;;;;;5015327;28;20045;-73
2023/04/05 12:01:28;;;;;;;17.80;12.70;;;15.40;35.90;;;;;;5018148;28;20069;-74
2023/04/05 12:03:55;;;;;;;18.10;13.63;;;15.50;35.30;;;;;;5051753;28;20079;-74
2023/04/05 12:06:25;;;;;;;18.20;13.10;;;15.50;35.50;;;;;;5056468;28;20434;-74
2023/04/05 12:08:52;;;;;;;16.55;12.75;;;15.70;35.00;;;;;;5049707;28;20021;-73
2023/04/05 12:11:30;;;;;;;18.15;14.23;;;15.50;34.70;;;;;;5018158;28;20220;-76
2023/04/05 12:13:57;;;;;;;17.02;12.82;;;15.50;34.20;;;;;;5024520;28;20056;-74
2023/04/05 12:16:24;;;;;;;17.92;12.90;;;15.70;35.60;;;;;;5025628;28;20577;-75
2023/04/05 12:18:57;;;;;;;18.42;12.90;;;15.70;35.00;;;;;;5022794;28;20021;-74
2023/04/05 12:21:23;;;;;;;18.13;13.77;;;15.60;35.10;;;;;;5030077;28;20462;-74
2023/04/05 12:23:50;;;;;;;18.85;13.82;;;15.60;33.90;;;;;;5047403;28;20029;-75
2023/04/05 12:26:17;;;;;;;16.48;12.80;;;15.40;35.90;;;;;;5013330;28;20132;-74
2023/04/05 12:28:52;;;;;;;17.67;13.35;;;15.60;36.40;;;;;;5026488;28;20032;-73
2023/04/05 12:31:40;;;;;;;17.67;13.80;;;15.80;35.10;;;;;;5020958;28;20087;-73
2023/04/05 12:34:06;;;;;;;17.55;13.27;;;16.00;34.90;;;;;;5019774;28;20044;-75
2023/04/05 12:36:32;;;;;;;19.80;13.48;;;15.90;34.20;;;;;;5033398;28;20466;-73
2023/04/05 12:38:59;;;;;;;16.83;13.55;;;15.50;34.10;;;;;;5024123;28;20036;-74